createdAt,value
2023-02-22T00:02:13.929Z,4.97
2023-02-22T00:04:42.333Z,5.15
2023-02-22T00:07:10.163Z,5.43
2023-02-22T00:09:38.041Z,5.35
2023-02-22T00:12:05.988Z,4.43
2023-02-22T00:14:33.871Z,4.70
2023-02-22T00:17:02.509Z,4.75
2023-02-22T00:19:31.133Z,4.22
2023-02-22T00:21:59.195Z,4.85
2023-02-22T00:24:29.473Z,4.15
2023-02-22T00:26:57.273Z,4.40
2023-02-22T00:29:25.989Z,4.63
2023-02-22T00:31:54.252Z,4.82
2023-02-22T00:34:24.239Z,5.03
2023-02-22T00:36:52.057Z,4.47
2023-02-22T00:39:20.281Z,4.90
2023-02-22T00:41:48.129Z,5.93
2023-02-22T00:44:16.148Z,4.85
2023-02-22T00:46:43.790Z,5.57
2023-02-22T00:49:11.800Z,5.82
2023-02-22T00:51:39.448Z,5.38
2023-02-22T00:54:08.491Z,6.78
2023-02-22T00:56:37.513Z,6.20
2023-02-22T00:59:06.149Z,6.32
2023-02-22T01:01:33.884Z,6.38
2023-02-22T01:04:02.080Z,6.10
2023-02-22T01:06:30.034Z,5.70
2023-02-22T01:08:59.574Z,5.68
2023-02-22T01:11:27.418Z,5.65
2023-02-22T01:13:56.662Z,5.70
2023-02-22T01:16:24.339Z,6.30
2023-02-22T01:18:52.386Z,5.68
2023-02-22T01:21:20.639Z,6.07
2023-02-22T01:23:48.620Z,5.72
2023-02-22T01:26:16.399Z,5.60
2023-02-22T01:28:44.366Z,5.72
2023-02-22T01:31:12.680Z,6.03
2023-02-22T01:33:41.550Z,6.72
2023-02-22T01:36:11.593Z,6.03
2023-02-22T01:38:39.881Z,5.80
2023-02-22T01:41:07.761Z,5.60
2023-02-22T01:43:38.398Z,6.65
2023-02-22T01:46:21.261Z,5.65
2023-02-22T01:49:06.491Z,5.70
2023-02-22T01:51:38.921Z,5.60
2023-02-22T01:54:22.273Z,4.95
2023-02-22T01:57:22.092Z,5.13
2023-02-22T02:00:00.855Z,5.47
2023-02-22T02:02:29.415Z,6.13
2023-02-22T02:04:59.490Z,5.45
2023-02-22T02:07:29.664Z,6.22
2023-02-22T02:10:06.880Z,5.65
2023-02-22T02:12:36.242Z,5.07
2023-02-22T02:15:31.525Z,6.40
2023-02-22T02:18:07.755Z,6.38
2023-02-22T02:20:53.759Z,5.32
2023-02-22T02:23:36.223Z,5.93
2023-02-22T02:26:10.298Z,5.43
2023-02-22T02:31:54.855Z,5.38
2023-02-22T02:34:49.675Z,5.82
2023-02-22T02:37:44.897Z,5.60
2023-02-22T02:40:12.702Z,5.50
2023-02-22T02:43:00.820Z,5.93
2023-02-22T02:45:47.055Z,5.65
2023-02-22T02:48:21.205Z,4.88
2023-02-22T02:50:51.238Z,5.23
2023-02-22T02:53:25.558Z,5.60
2023-02-22T02:55:53.304Z,5.75
2023-02-22T02:58:23.858Z,5.50
2023-02-22T03:00:56.318Z,5.00
2023-02-22T03:03:38.825Z,4.78
2023-02-22T03:06:25.032Z,5.18
2023-02-22T03:09:14.263Z,5.10
2023-02-22T03:12:12.999Z,4.93
2023-02-22T03:15:06.313Z,4.65
2023-02-22T03:17:55.965Z,4.57
2023-02-22T03:20:37.865Z,4.30
2023-02-22T03:23:31.162Z,4.40
2023-02-22T03:26:07.876Z,4.28
2023-02-22T03:28:41.766Z,4.32
2023-02-22T03:31:18.042Z,4.45
2023-02-22T03:34:10.014Z,4.53
2023-02-22T03:36:51.940Z,3.97
2023-02-22T03:39:20.903Z,4.13
2023-02-22T03:41:53.218Z,3.78
2023-02-22T03:44:29.295Z,4.38
2023-02-22T03:47:02.117Z,3.80
2023-02-22T03:49:35.096Z,3.92
2023-02-22T03:54:35.156Z,3.40
2023-02-22T03:57:25.562Z,3.90
2023-02-22T04:00:06.990Z,3.70
2023-02-22T04:02:41.793Z,3.17
2023-02-22T04:08:33.535Z,3.70
2023-02-22T04:11:07.754Z,3.88
2023-02-22T04:13:35.473Z,3.65
2023-02-22T04:16:04.379Z,3.72
2023-02-22T04:18:32.519Z,3.47
2023-02-22T04:21:02.624Z,4.05
2023-02-22T04:23:38.113Z,3.70
2023-02-22T04:26:06.449Z,3.33
2023-02-22T04:28:34.146Z,3.17
2023-02-22T04:31:17.491Z,2.88
2023-02-22T04:33:45.719Z,3.28
2023-02-22T04:36:17.289Z,2.95
2023-02-22T04:38:46.274Z,2.70
2023-02-22T04:41:14.490Z,3.08
2023-02-22T04:43:42.692Z,2.47
2023-02-22T04:46:23.247Z,2.65
2023-02-22T04:48:53.076Z,2.50
2023-02-22T04:51:24.293Z,2.70
2023-02-22T04:53:57.687Z,3.00
2023-02-22T04:56:26.382Z,2.70
2023-02-22T04:58:54.095Z,2.70
2023-02-22T05:01:23.557Z,2.70
2023-02-22T05:03:51.742Z,2.90
2023-02-22T05:06:19.723Z,2.40
2023-02-22T05:08:48.069Z,2.55
2023-02-22T05:11:16.231Z,2.75
2023-02-22T05:13:44.035Z,3.00
2023-02-22T05:16:12.277Z,2.60
2023-02-22T05:18:40.062Z,2.95
2023-02-22T05:21:08.614Z,2.55
2023-02-22T05:23:36.361Z,2.42
2023-02-22T05:26:06.560Z,2.80
2023-02-22T05:28:34.371Z,2.90
2023-02-22T05:31:02.410Z,2.65
2023-02-22T05:33:30.207Z,2.63
2023-02-22T05:35:58.125Z,2.80
2023-02-22T05:38:26.065Z,3.58
2023-02-22T05:40:54.214Z,3.65
2023-02-22T05:43:21.824Z,3.53
2023-02-22T05:45:49.785Z,3.13
2023-02-22T05:48:18.040Z,3.13
2023-02-22T05:50:46.100Z,2.50
2023-02-22T05:53:13.947Z,2.95
2023-02-22T05:55:41.909Z,2.90
2023-02-22T05:58:09.550Z,3.17
2023-02-22T06:00:37.509Z,3.15
2023-02-22T06:03:08.176Z,3.42
2023-02-22T06:05:37.430Z,3.15
2023-02-22T06:08:07.109Z,3.08
2023-02-22T06:10:35.493Z,3.10
2023-02-22T06:13:05.322Z,3.22
2023-02-22T06:15:33.664Z,3.17
2023-02-22T06:18:02.637Z,3.38
2023-02-22T06:20:31.589Z,2.45
2023-02-22T06:22:59.513Z,3.40
2023-02-22T06:25:33.035Z,3.70
2023-02-22T06:28:01.628Z,3.50
2023-02-22T06:30:30.840Z,4.85
2023-02-22T06:32:58.599Z,4.25
2023-02-22T06:35:26.658Z,5.22
2023-02-22T06:37:54.464Z,4.65
2023-02-22T06:40:22.490Z,3.92
2023-02-22T06:42:50.213Z,3.38
2023-02-22T06:45:18.786Z,3.65
2023-02-22T06:47:46.497Z,3.10
2023-02-22T06:50:29.476Z,2.97
2023-02-22T06:52:58.385Z,3.05
2023-02-22T06:55:29.213Z,2.83
2023-02-22T06:57:56.904Z,2.78
2023-02-22T07:00:26.515Z,2.80
2023-02-22T07:02:54.883Z,3.08
2023-02-22T07:05:24.760Z,3.22
2023-02-22T07:07:54.400Z,3.30
2023-02-22T07:10:28.787Z,2.90
2023-02-22T07:12:56.905Z,2.85
2023-02-22T07:15:27.981Z,2.80
2023-02-22T07:17:56.310Z,3.17
2023-02-22T07:20:26.055Z,2.90
2023-02-22T07:22:53.998Z,2.70
2023-02-22T07:25:23.132Z,2.70
2023-02-22T07:27:52.495Z,3.13
2023-02-22T07:30:25.364Z,3.13
2023-02-22T07:32:55.459Z,3.40
2023-02-22T07:35:44.460Z,2.80
2023-02-22T07:38:13.013Z,2.85
2023-02-22T07:40:42.446Z,2.72
2023-02-22T07:43:37.063Z,2.70
2023-02-22T07:46:05.422Z,3.00
2023-02-22T07:48:33.340Z,5.10
2023-02-22T07:51:01.419Z,4.43
2023-02-22T07:53:31.751Z,2.75
2023-02-22T07:56:01.620Z,4.25
2023-02-22T07:58:30.706Z,2.35
2023-02-22T08:00:59.926Z,3.13
2023-02-22T08:03:28.060Z,3.10
2023-02-22T08:05:57.770Z,5.15
2023-02-22T08:08:25.579Z,6.60
2023-02-22T08:10:53.861Z,4.00
2023-02-22T08:13:22.712Z,2.85
2023-02-22T08:15:53.653Z,2.22
2023-02-22T08:18:23.073Z,2.47
2023-02-22T08:20:52.264Z,2.20
2023-02-22T08:23:25.281Z,3.90
2023-02-22T08:25:54.118Z,7.28
2023-02-22T08:28:24.163Z,10.57
2023-02-22T08:30:52.607Z,7.25
2023-02-22T08:33:20.665Z,8.13
2023-02-22T08:35:50.001Z,6.25
2023-02-22T08:38:25.157Z,3.03
2023-02-22T08:40:53.480Z,2.20
2023-02-22T08:43:21.875Z,2.42
2023-02-22T08:45:51.959Z,2.90
2023-02-22T08:48:20.512Z,2.55
2023-02-22T08:50:48.702Z,2.50
2023-02-22T08:53:17.040Z,2.38
2023-02-22T08:55:45.509Z,2.30
2023-02-22T08:58:13.930Z,2.05
2023-02-22T09:00:44.741Z,2.58
2023-02-22T09:03:14.683Z,2.42
2023-02-22T09:05:44.316Z,2.47
2023-02-22T09:08:13.100Z,3.33
2023-02-22T09:10:41.248Z,2.88
2023-02-22T09:13:08.975Z,2.50
2023-02-22T09:15:37.783Z,2.83
2023-02-22T09:18:08.482Z,2.60
2023-02-22T09:20:36.792Z,2.45
2023-02-22T09:23:06.459Z,2.60
2023-02-22T09:25:34.437Z,2.90
2023-02-22T09:28:02.606Z,3.30
2023-02-22T09:30:33.778Z,2.65
2023-02-22T09:33:10.036Z,3.53
2023-02-22T09:35:43.077Z,4.30
2023-02-22T09:38:11.947Z,5.03
2023-02-22T09:41:16.736Z,4.40
2023-02-22T09:44:20.063Z,3.67
2023-02-22T09:46:49.600Z,3.05
2023-02-22T09:49:39.833Z,3.10
2023-02-22T09:52:24.218Z,2.70
2023-02-22T09:55:18.636Z,2.80
2023-02-22T09:57:47.391Z,2.65
2023-02-22T10:00:22.744Z,3.10
2023-02-22T10:03:17.374Z,3.00
2023-02-22T10:05:53.737Z,2.67
2023-02-22T10:08:31.363Z,3.38
2023-02-22T10:11:49.816Z,3.55
2023-02-22T10:14:35.076Z,3.78
2023-02-22T10:17:22.629Z,3.38
2023-02-22T10:20:13.479Z,3.55
2023-02-22T10:22:57.082Z,3.38
2023-02-22T10:25:28.873Z,3.92
2023-02-22T10:28:18.593Z,5.05
2023-02-22T10:30:59.236Z,5.30
2023-02-22T10:33:48.927Z,5.20
2023-02-22T10:36:20.414Z,5.03
2023-02-22T10:38:57.750Z,6.93
2023-02-22T10:41:35.071Z,6.15
2023-02-22T10:44:03.623Z,5.15
2023-02-22T10:46:33.372Z,6.38
2023-02-22T10:49:09.539Z,5.80
2023-02-22T10:51:39.356Z,5.35
2023-02-22T10:54:12.815Z,5.50
2023-02-22T10:59:30.752Z,5.90
2023-02-22T11:01:59.631Z,6.97
2023-02-22T11:04:28.023Z,6.60
2023-02-22T11:07:10.531Z,5.85
2023-02-22T11:09:56.317Z,5.07
2023-02-22T11:12:32.780Z,5.05
2023-02-22T11:15:36.076Z,6.57
2023-02-22T11:18:04.208Z,5.05
2023-02-22T11:20:39.393Z,4.88
2023-02-22T11:23:08.359Z,5.53
2023-02-22T11:25:39.439Z,4.80
2023-02-22T11:28:15.726Z,4.60
2023-02-22T11:30:48.765Z,4.70
2023-02-22T11:33:23.307Z,5.18
2023-02-22T11:35:59.471Z,4.88
2023-02-22T11:38:31.468Z,4.50
2023-02-22T11:41:16.632Z,4.68
2023-02-22T11:43:48.004Z,4.50
2023-02-22T11:46:22.602Z,4.15
2023-02-22T11:49:04.676Z,4.55
2023-02-22T11:51:56.272Z,4.70
2023-02-22T11:54:33.465Z,4.80
2023-02-22T11:57:30.218Z,4.60
2023-02-22T12:00:26.263Z,4.60
2023-02-22T12:03:05.881Z,4.32
2023-02-22T12:05:45.856Z,4.82
2023-02-22T12:08:51.597Z,5.03
2023-02-22T12:11:23.925Z,4.18
2023-02-22T12:14:16.192Z,4.07
2023-02-22T12:16:59.602Z,4.38
2023-02-22T12:20:00.974Z,3.88
2023-02-22T12:22:39.837Z,4.25
2023-02-22T12:25:29.520Z,4.78
2023-02-22T12:28:15.679Z,4.53
2023-02-22T12:31:05.368Z,4.95
2023-02-22T12:34:04.374Z,5.40
2023-02-22T12:36:41.178Z,4.68
2023-02-22T12:39:52.617Z,5.72
2023-02-22T12:42:36.239Z,4.70
2023-02-22T12:45:24.609Z,4.85
2023-02-22T12:48:09.018Z,4.75
2023-02-22T12:50:37.831Z,4.55
2023-02-22T12:53:29.491Z,4.32
2023-02-22T12:56:24.377Z,4.80
2023-02-22T12:59:03.171Z,5.20
2023-02-22T13:01:40.462Z,4.90
2023-02-22T13:04:20.200Z,5.18
2023-02-22T13:07:08.304Z,4.93
2023-02-22T13:09:41.972Z,5.13
2023-02-22T13:12:24.782Z,4.45
2023-02-22T13:15:02.135Z,10.82
2023-02-22T13:17:50.931Z,6.93
2023-02-22T13:20:30.754Z,4.55
2023-02-22T13:23:06.787Z,6.85
2023-02-22T13:25:51.277Z,4.40
2023-02-22T13:28:43.463Z,4.10
2023-02-22T13:31:45.975Z,4.40
2023-02-22T13:34:40.301Z,4.55
2023-02-22T13:37:31.051Z,4.75
2023-02-22T13:40:17.167Z,5.57
2023-02-22T13:43:17.003Z,5.45
2023-02-22T13:45:55.436Z,4.55
2023-02-22T13:48:53.495Z,4.22
2023-02-22T13:51:30.436Z,4.32
2023-02-22T13:54:06.102Z,4.10
2023-02-22T13:56:34.306Z,4.22
2023-02-22T13:59:04.191Z,4.57
2023-02-22T14:01:47.095Z,3.85
2023-02-22T14:04:20.812Z,5.15
2023-02-22T14:09:37.896Z,4.57
2023-02-22T14:12:06.124Z,4.80
2023-02-22T14:14:33.886Z,5.38
2023-02-22T14:17:25.751Z,5.88
2023-02-22T14:20:16.652Z,4.45
2023-02-22T14:22:47.995Z,4.82
2023-02-22T14:25:39.464Z,4.35
2023-02-22T14:28:28.530Z,3.97
2023-02-22T14:31:33.369Z,5.03
2023-02-22T14:34:15.459Z,4.90
2023-02-22T14:36:54.610Z,4.47
2023-02-22T14:39:25.596Z,4.70
2023-02-22T14:42:05.856Z,4.80
2023-02-22T14:44:55.457Z,5.53
2023-02-22T14:48:01.051Z,4.63
2023-02-22T14:50:45.215Z,4.22
2023-02-22T14:53:22.651Z,3.80
2023-02-22T14:56:17.745Z,4.15
2023-02-22T14:59:08.011Z,4.78
2023-02-22T15:01:53.146Z,6.57
2023-02-22T15:04:28.941Z,4.35
2023-02-22T15:07:00.428Z,4.47
2023-02-22T15:09:37.484Z,5.10
2023-02-22T15:12:05.876Z,6.35
2023-02-22T15:14:38.010Z,5.28
2023-02-22T15:17:21.393Z,4.78
2023-02-22T15:19:50.115Z,4.40
2023-02-22T15:22:35.412Z,4.88
2023-02-22T15:25:06.380Z,4.68
2023-02-22T15:27:39.342Z,3.78
2023-02-22T15:30:20.303Z,5.53
2023-02-22T15:33:03.251Z,5.53
2023-02-22T15:35:33.634Z,4.60
2023-02-22T15:38:26.758Z,5.00
2023-02-22T15:41:08.418Z,4.35
2023-02-22T15:43:36.370Z,6.10
2023-02-22T15:46:06.816Z,5.85
2023-02-22T15:48:37.303Z,4.85
2023-02-22T15:51:06.627Z,5.43
2023-02-22T15:53:44.916Z,4.63
2023-02-22T15:56:26.900Z,6.05
2023-02-22T15:59:03.820Z,4.50
2023-02-22T16:01:42.960Z,4.65
2023-02-22T16:04:26.654Z,4.93
2023-02-22T16:07:07.202Z,4.47
2023-02-22T16:09:35.770Z,5.07
2023-02-22T16:12:23.770Z,5.50
2023-02-22T16:14:52.544Z,6.07
2023-02-22T16:17:37.236Z,6.28
2023-02-22T16:20:14.558Z,6.90
2023-02-22T16:22:49.232Z,6.85
2023-02-22T16:25:22.465Z,6.90
2023-02-22T16:27:53.192Z,7.07
2023-02-22T16:30:32.533Z,6.63
2023-02-22T16:33:05.526Z,7.53
2023-02-22T16:35:35.652Z,8.07
2023-02-22T16:38:16.450Z,7.97
2023-02-22T16:40:55.548Z,8.80
2023-02-22T16:43:29.589Z,8.48
2023-02-22T16:45:57.823Z,9.18
2023-02-22T16:48:27.279Z,8.70
2023-02-22T16:51:01.161Z,11.07
2023-02-22T16:53:32.125Z,12.80
2023-02-22T16:56:05.766Z,17.05
2023-02-22T16:58:36.724Z,13.32
2023-02-22T17:01:04.999Z,11.63
2023-02-22T17:03:32.780Z,11.50
2023-02-22T17:06:00.684Z,11.07
2023-02-22T17:08:28.343Z,10.27
2023-02-22T17:10:57.843Z,10.48
2023-02-22T17:13:27.672Z,11.32
2023-02-22T17:15:57.135Z,10.82
2023-02-22T17:18:28.920Z,15.60
2023-02-22T17:20:57.346Z,13.85
2023-02-22T17:23:27.600Z,14.52
2023-02-22T17:25:59.286Z,12.00
2023-02-22T17:28:28.179Z,13.15
2023-02-22T17:31:02.062Z,14.60
2023-02-22T17:36:02.046Z,14.52
2023-02-22T17:38:30.756Z,15.43
2023-02-22T17:41:00.553Z,16.20
2023-02-22T17:43:29.015Z,17.20
2023-02-22T17:45:57.424Z,17.65
2023-02-22T17:48:26.018Z,17.60
2023-02-22T17:50:54.073Z,17.77
2023-02-22T17:53:24.897Z,17.00
2023-02-22T17:55:53.487Z,16.08
2023-02-22T17:58:22.350Z,17.05
2023-02-22T18:00:50.878Z,15.82
2023-02-22T18:03:21.926Z,16.38
2023-02-22T18:05:54.938Z,15.63
2023-02-22T18:10:56.390Z,16.40
2023-02-22T18:13:26.598Z,19.73
2023-02-22T18:16:00.252Z,20.25
2023-02-22T18:18:28.784Z,20.58
2023-02-22T18:20:59.914Z,18.55
2023-02-22T18:23:30.594Z,16.92
2023-02-22T18:26:10.766Z,16.50
2023-02-22T18:28:39.807Z,15.63
2023-02-22T18:31:14.832Z,14.43
2023-02-22T18:33:44.220Z,13.25
2023-02-22T18:36:13.626Z,13.52
2023-02-22T18:38:43.222Z,14.27
2023-02-22T18:41:14.415Z,12.13
2023-02-22T18:43:43.075Z,13.35
2023-02-22T18:46:14.411Z,14.65
2023-02-22T18:48:42.381Z,14.80
2023-02-22T18:51:12.730Z,16.00
2023-02-22T18:53:46.914Z,17.65
2023-02-22T18:56:21.870Z,15.85
2023-02-22T18:58:54.147Z,15.35
2023-02-22T19:01:22.621Z,15.65
2023-02-22T19:03:51.779Z,15.30
2023-02-22T19:06:22.622Z,16.38
2023-02-22T19:08:51.055Z,22.23
2023-02-22T19:11:24.478Z,16.90
2023-02-22T19:13:54.258Z,14.65
2023-02-22T19:16:24.499Z,12.52
2023-02-22T19:18:57.236Z,12.50
2023-02-22T19:21:27.953Z,10.65
2023-02-22T19:24:01.502Z,13.00
2023-02-22T19:26:30.276Z,12.70
2023-02-22T19:28:59.640Z,15.82
2023-02-22T19:31:31.983Z,15.38
2023-02-22T19:34:11.164Z,14.73
2023-02-22T19:36:47.648Z,16.27
2023-02-22T19:39:17.216Z,15.63
2023-02-22T19:41:45.907Z,16.10
2023-02-22T19:44:13.876Z,18.40
2023-02-22T19:46:41.787Z,15.13
2023-02-22T19:49:09.530Z,15.77
2023-02-22T19:51:43.384Z,15.13
2023-02-22T19:54:17.471Z,14.77
2023-02-22T19:56:50.766Z,14.05
2023-02-22T19:59:21.537Z,11.38
2023-02-22T20:01:54.002Z,12.43
2023-02-22T20:04:22.962Z,11.65
2023-02-22T20:06:57.557Z,11.57
2023-02-22T20:09:39.626Z,11.18
2023-02-22T20:12:08.146Z,11.18
2023-02-22T20:14:36.272Z,10.43
2023-02-22T20:17:05.084Z,10.85
2023-02-22T20:19:32.767Z,11.73
2023-02-22T20:22:00.729Z,11.35
2023-02-22T20:24:28.405Z,11.40
2023-02-22T20:26:58.237Z,11.77
2023-02-22T20:29:30.038Z,11.38
2023-02-22T20:32:00.572Z,9.98
2023-02-22T20:34:32.523Z,9.82
2023-02-22T20:37:01.836Z,10.75
2023-02-22T20:39:29.771Z,10.13
2023-02-22T20:42:00.615Z,10.45
2023-02-22T20:44:28.458Z,7.30
2023-02-22T20:46:56.553Z,9.05
2023-02-22T20:49:25.840Z,10.18
2023-02-22T20:51:53.776Z,10.38
2023-02-22T20:54:21.448Z,10.00
2023-02-22T20:56:50.713Z,10.02
2023-02-22T20:59:21.508Z,11.10
2023-02-22T21:01:50.235Z,10.95
2023-02-22T21:04:18.687Z,10.48
2023-02-22T21:06:46.808Z,10.18
2023-02-22T21:09:19.883Z,9.73
2023-02-22T21:11:49.118Z,9.45
2023-02-22T21:14:20.724Z,9.68
2023-02-22T21:16:50.704Z,9.50
2023-02-22T21:19:25.539Z,10.00
2023-02-22T21:21:55.712Z,10.50
2023-02-22T21:24:25.181Z,9.30
2023-02-22T21:26:53.332Z,8.02
2023-02-22T21:29:21.403Z,6.45
2023-02-22T21:31:49.487Z,6.55
2023-02-22T21:34:17.621Z,6.05
2023-02-22T21:36:46.558Z,6.20
2023-02-22T21:39:19.128Z,6.28
2023-02-22T21:41:52.013Z,6.35
2023-02-22T21:44:20.145Z,6.25
2023-02-22T21:46:49.872Z,6.35
2023-02-22T21:49:18.326Z,5.88
2023-02-22T21:51:46.336Z,6.65
2023-02-22T21:54:14.059Z,6.53
2023-02-22T21:56:43.638Z,5.97
2023-02-22T21:59:19.047Z,6.57
2023-02-22T22:02:06.149Z,6.25
2023-02-22T22:04:35.024Z,7.03
2023-02-22T22:07:04.492Z,5.95
2023-02-22T22:09:33.413Z,7.07
2023-02-22T22:12:05.358Z,6.63
2023-02-22T22:14:34.454Z,5.20
2023-02-22T22:17:05.685Z,6.10
2023-02-22T22:19:39.174Z,6.70
2023-02-22T22:24:36.350Z,6.57
2023-02-22T22:27:06.517Z,7.00
2023-02-22T22:29:34.677Z,6.57
2023-02-22T22:32:03.728Z,6.20
2023-02-22T22:34:34.370Z,6.68
2023-02-22T22:37:03.055Z,6.28
2023-02-22T22:39:30.895Z,6.85
2023-02-22T22:41:58.861Z,6.60
2023-02-22T22:44:32.684Z,6.78
2023-02-22T22:47:01.286Z,6.22
2023-02-22T22:49:31.373Z,6.22
2023-02-22T22:51:59.588Z,5.43
2023-02-22T22:54:27.403Z,7.15
2023-02-22T22:56:55.330Z,7.18
2023-02-22T22:59:23.092Z,7.05
2023-02-22T23:01:52.304Z,5.63
2023-02-22T23:04:21.505Z,6.78
2023-02-22T23:06:51.389Z,5.70
2023-02-22T23:09:22.759Z,6.80
2023-02-22T23:12:08.725Z,6.28
2023-02-22T23:14:44.188Z,6.13
2023-02-22T23:17:16.275Z,5.72
2023-02-22T23:19:45.137Z,6.07
2023-02-22T23:22:14.408Z,5.90
2023-02-22T23:24:44.468Z,6.88
2023-02-22T23:27:13.000Z,5.85
2023-02-22T23:29:42.445Z,5.90
2023-02-22T23:32:10.506Z,5.10
2023-02-22T23:34:41.724Z,4.80
2023-02-22T23:37:10.835Z,5.15
2023-02-22T23:39:38.870Z,5.32
2023-02-22T23:42:10.031Z,5.07
2023-02-22T23:44:39.806Z,4.88
2023-02-22T23:47:09.643Z,4.95
2023-02-22T23:49:38.465Z,5.22
2023-02-22T23:52:08.416Z,4.40
2023-02-22T23:54:40.412Z,5.50
2023-02-22T23:57:09.103Z,5.20
2023-02-22T23:59:40.415Z,5.30
